sensor_id;sensor_type;location;lat;lon;timestamp;P1;durP1;ratioP1;P2;durP2;ratioP2
69419;SDS011;56612;52.030;113.524;2023-04-25T00:00:28;67.53;;;20.52;;
69419;SDS011;56612;52.030;113.524;2023-04-25T00:03:32;64.28;;;21.30;;
69419;SDS011;56612;52.030;113.524;2023-04-25T00:06:36;65.85;;;21.83;;
69419;SDS011;56612;52.030;113.524;2023-04-25T00:09:41;66.67;;;19.60;;
69419;SDS011;56612;52.030;113.524;2023-04-25T00:12:45;68.27;;;22.43;;
69419;SDS011;56612;52.030;113.524;2023-04-25T00:15:49;66.28;;;21.67;;
69419;SDS011;56612;52.030;113.524;2023-04-25T00:18:53;55.20;;;18.52;;
69419;SDS011;56612;52.030;113.524;2023-04-25T00:21:57;47.90;;;17.70;;
69419;SDS011;56612;52.030;113.524;2023-04-25T00:25:01;56.37;;;16.57;;
69419;SDS011;56612;52.030;113.524;2023-04-25T00:28:06;50.97;;;18.60;;
69419;SDS011;56612;52.030;113.524;2023-04-25T00:31:10;48.90;;;17.88;;
69419;SDS011;56612;52.030;113.524;2023-04-25T00:34:14;64.35;;;17.73;;
69419;SDS011;56612;52.030;113.524;2023-04-25T00:37:18;46.65;;;17.27;;
69419;SDS011;56612;52.030;113.524;2023-04-25T00:40:23;65.03;;;17.90;;
69419;SDS011;56612;52.030;113.524;2023-04-25T00:43:27;51.13;;;16.87;;
69419;SDS011;56612;52.030;113.524;2023-04-25T00:46:32;53.42;;;17.15;;
69419;SDS011;56612;52.030;113.524;2023-04-25T00:49:36;45.50;;;17.63;;
69419;SDS011;56612;52.030;113.524;2023-04-25T00:52:41;49.25;;;17.98;;
69419;SDS011;56612;52.030;113.524;2023-04-25T00:55:47;42.20;;;14.73;;
69419;SDS011;56612;52.030;113.524;2023-04-25T00:58:54;51.43;;;16.90;;
69419;SDS011;56612;52.030;113.524;2023-04-25T01:01:59;45.10;;;14.70;;
69419;SDS011;56612;52.030;113.524;2023-04-25T01:05:04;39.33;;;14.10;;
69419;SDS011;56612;52.030;113.524;2023-04-25T01:08:09;37.72;;;14.32;;
69419;SDS011;56612;52.030;113.524;2023-04-25T01:11:13;43.87;;;14.00;;
69419;SDS011;56612;52.030;113.524;2023-04-25T01:14:17;41.07;;;14.10;;
69419;SDS011;56612;52.030;113.524;2023-04-25T01:17:21;39.83;;;12.57;;
69419;SDS011;56612;52.030;113.524;2023-04-25T01:20:25;35.50;;;12.05;;
69419;SDS011;56612;52.030;113.524;2023-04-25T01:23:31;36.00;;;11.32;;
69419;SDS011;56612;52.030;113.524;2023-04-25T01:26:36;27.43;;;11.10;;
69419;SDS011;56612;52.030;113.524;2023-04-25T01:29:41;42.57;;;12.27;;
69419;SDS011;56612;52.030;113.524;2023-04-25T01:32:45;41.08;;;13.38;;
69419;SDS011;56612;52.030;113.524;2023-04-25T01:35:51;32.03;;;12.15;;
69419;SDS011;56612;52.030;113.524;2023-04-25T01:38:55;34.95;;;12.35;;
69419;SDS011;56612;52.030;113.524;2023-04-25T01:42:00;35.50;;;12.30;;
69419;SDS011;56612;52.030;113.524;2023-04-25T01:45:05;32.70;;;13.03;;
69419;SDS011;56612;52.030;113.524;2023-04-25T01:48:11;27.63;;;10.98;;
69419;SDS011;56612;52.030;113.524;2023-04-25T01:51:17;27.45;;;10.77;;
69419;SDS011;56612;52.030;113.524;2023-04-25T01:54:22;33.28;;;13.93;;
69419;SDS011;56612;52.030;113.524;2023-04-25T01:57:25;47.43;;;12.07;;
69419;SDS011;56612;52.030;113.524;2023-04-25T02:00:30;34.50;;;12.47;;
69419;SDS011;56612;52.030;113.524;2023-04-25T02:03:34;34.00;;;12.30;;
69419;SDS011;56612;52.030;113.524;2023-04-25T02:06:42;29.70;;;11.40;;
69419;SDS011;56612;52.030;113.524;2023-04-25T02:09:46;26.88;;;10.98;;
69419;SDS011;56612;52.030;113.524;2023-04-25T02:12:52;23.50;;;10.23;;
69419;SDS011;56612;52.030;113.524;2023-04-25T02:16:16;21.93;;;8.53;;
69419;SDS011;56612;52.030;113.524;2023-04-25T02:19:21;17.70;;;7.97;;
69419;SDS011;56612;52.030;113.524;2023-04-25T02:22:24;17.33;;;8.63;;
69419;SDS011;56612;52.030;113.524;2023-04-25T02:25:30;25.63;;;6.78;;
69419;SDS011;56612;52.030;113.524;2023-04-25T02:28:34;13.43;;;5.57;;
69419;SDS011;56612;52.030;113.524;2023-04-25T02:31:38;19.87;;;5.43;;
69419;SDS011;56612;52.030;113.524;2023-04-25T02:34:42;15.57;;;5.50;;
69419;SDS011;56612;52.030;113.524;2023-04-25T02:37:45;19.85;;;7.30;;
69419;SDS011;56612;52.030;113.524;2023-04-25T02:40:48;22.80;;;6.85;;
69419;SDS011;56612;52.030;113.524;2023-04-25T02:43:52;22.90;;;6.93;;
69419;SDS011;56612;52.030;113.524;2023-04-25T02:46:56;21.03;;;6.50;;
69419;SDS011;56612;52.030;113.524;2023-04-25T02:49:59;21.73;;;6.75;;
69419;SDS011;56612;52.030;113.524;2023-04-25T02:53:03;20.33;;;7.57;;
69419;SDS011;56612;52.030;113.524;2023-04-25T02:56:12;18.17;;;7.00;;
69419;SDS011;56612;52.030;113.524;2023-04-25T02:59:16;18.50;;;6.27;;
69419;SDS011;56612;52.030;113.524;2023-04-25T03:02:20;16.30;;;6.23;;
69419;SDS011;56612;52.030;113.524;2023-04-25T03:05:23;18.92;;;6.25;;
69419;SDS011;56612;52.030;113.524;2023-04-25T03:08:27;16.85;;;5.82;;
69419;SDS011;56612;52.030;113.524;2023-04-25T03:11:40;21.70;;;7.35;;
69419;SDS011;56612;52.030;113.524;2023-04-25T03:14:44;19.50;;;5.77;;
69419;SDS011;56612;52.030;113.524;2023-04-25T03:17:49;13.67;;;4.70;;
69419;SDS011;56612;52.030;113.524;2023-04-25T03:20:52;16.35;;;5.68;;
69419;SDS011;56612;52.030;113.524;2023-04-25T03:23:56;15.00;;;3.42;;
69419;SDS011;56612;52.030;113.524;2023-04-25T03:27:01;11.55;;;3.40;;
69419;SDS011;56612;52.030;113.524;2023-04-25T03:30:05;6.27;;;1.60;;
69419;SDS011;56612;52.030;113.524;2023-04-25T03:33:12;6.50;;;2.00;;
69419;SDS011;56612;52.030;113.524;2023-04-25T03:36:16;10.48;;;3.42;;
69419;SDS011;56612;52.030;113.524;2023-04-25T03:39:20;5.85;;;1.98;;
69419;SDS011;56612;52.030;113.524;2023-04-25T03:42:26;5.68;;;1.88;;
69419;SDS011;56612;52.030;113.524;2023-04-25T03:45:29;3.23;;;1.50;;
69419;SDS011;56612;52.030;113.524;2023-04-25T03:48:33;4.73;;;1.40;;
69419;SDS011;56612;52.030;113.524;2023-04-25T03:51:37;6.28;;;1.60;;
69419;SDS011;56612;52.030;113.524;2023-04-25T03:54:41;13.00;;;1.95;;
69419;SDS011;56612;52.030;113.524;2023-04-25T03:57:52;8.00;;;2.72;;
69419;SDS011;56612;52.030;113.524;2023-04-25T04:00:55;7.07;;;1.50;;
69419;SDS011;56612;52.030;113.524;2023-04-25T04:03:59;7.70;;;2.37;;
69419;SDS011;56612;52.030;113.524;2023-04-25T04:07:03;10.48;;;2.40;;
69419;SDS011;56612;52.030;113.524;2023-04-25T04:10:10;5.90;;;1.70;;
69419;SDS011;56612;52.030;113.524;2023-04-25T04:13:15;5.10;;;1.83;;
69419;SDS011;56612;52.030;113.524;2023-04-25T04:16:19;4.03;;;1.40;;
69419;SDS011;56612;52.030;113.524;2023-04-25T04:19:23;7.40;;;1.67;;
69419;SDS011;56612;52.030;113.524;2023-04-25T04:22:57;5.38;;;1.63;;
69419;SDS011;56612;52.030;113.524;2023-04-25T04:26:00;5.88;;;1.30;;
69419;SDS011;56612;52.030;113.524;2023-04-25T04:29:36;7.13;;;1.60;;
69419;SDS011;56612;52.030;113.524;2023-04-25T04:32:50;5.43;;;1.50;;
69419;SDS011;56612;52.030;113.524;2023-04-25T04:35:55;5.93;;;1.60;;
69419;SDS011;56612;52.030;113.524;2023-04-25T04:38:58;6.07;;;1.45;;
69419;SDS011;56612;52.030;113.524;2023-04-25T04:42:25;6.57;;;1.60;;
69419;SDS011;56612;52.030;113.524;2023-04-25T04:45:46;5.68;;;1.48;;
69419;SDS011;56612;52.030;113.524;2023-04-25T04:49:08;5.93;;;1.40;;
69419;SDS011;56612;52.030;113.524;2023-04-25T04:52:30;8.53;;;1.73;;
69419;SDS011;56612;52.030;113.524;2023-04-25T04:55:54;4.05;;;1.55;;
69419;SDS011;56612;52.030;113.524;2023-04-25T04:59:25;5.63;;;1.48;;
69419;SDS011;56612;52.030;113.524;2023-04-25T05:02:55;4.68;;;1.58;;
69419;SDS011;56612;52.030;113.524;2023-04-25T05:06:26;5.77;;;1.50;;
69419;SDS011;56612;52.030;113.524;2023-04-25T05:09:49;3.47;;;1.57;;
69419;SDS011;56612;52.030;113.524;2023-04-25T05:13:21;5.40;;;1.60;;
69419;SDS011;56612;52.030;113.524;2023-04-25T05:16:59;4.82;;;1.65;;
69419;SDS011;56612;52.030;113.524;2023-04-25T05:20:28;6.95;;;1.63;;
69419;SDS011;56612;52.030;113.524;2023-04-25T05:23:54;3.37;;;1.50;;
69419;SDS011;56612;52.030;113.524;2023-04-25T05:27:31;5.03;;;1.50;;
69419;SDS011;56612;52.030;113.524;2023-04-25T05:30:54;5.28;;;1.42;;
69419;SDS011;56612;52.030;113.524;2023-04-25T05:34:04;6.03;;;1.80;;
69419;SDS011;56612;52.030;113.524;2023-04-25T05:37:15;5.13;;;2.08;;
69419;SDS011;56612;52.030;113.524;2023-04-25T05:40:29;4.93;;;1.73;;
69419;SDS011;56612;52.030;113.524;2023-04-25T05:43:52;3.57;;;1.70;;
69419;SDS011;56612;52.030;113.524;2023-04-25T05:47:28;5.00;;;1.50;;
69419;SDS011;56612;52.030;113.524;2023-04-25T05:50:45;3.47;;;1.50;;
69419;SDS011;56612;52.030;113.524;2023-04-25T05:54:07;7.32;;;1.75;;
69419;SDS011;56612;52.030;113.524;2023-04-25T05:57:24;8.73;;;2.33;;
69419;SDS011;56612;52.030;113.524;2023-04-25T06:00:30;8.33;;;2.43;;
69419;SDS011;56612;52.030;113.524;2023-04-25T06:03:34;9.45;;;2.55;;
69419;SDS011;56612;52.030;113.524;2023-04-25T06:06:41;8.80;;;1.90;;
69419;SDS011;56612;52.030;113.524;2023-04-25T06:09:44;8.82;;;1.92;;
69419;SDS011;56612;52.030;113.524;2023-04-25T06:12:47;5.17;;;1.37;;
69419;SDS011;56612;52.030;113.524;2023-04-25T06:15:53;4.70;;;1.57;;
69419;SDS011;56612;52.030;113.524;2023-04-25T06:18:57;5.57;;;1.50;;
69419;SDS011;56612;52.030;113.524;2023-04-25T06:22:01;5.43;;;1.60;;
69419;SDS011;56612;52.030;113.524;2023-04-25T06:25:08;6.93;;;2.28;;
69419;SDS011;56612;52.030;113.524;2023-04-25T06:28:12;6.27;;;1.43;;
69419;SDS011;56612;52.030;113.524;2023-04-25T06:31:17;9.37;;;2.00;;
69419;SDS011;56612;52.030;113.524;2023-04-25T06:34:23;7.70;;;2.28;;
69419;SDS011;56612;52.030;113.524;2023-04-25T06:37:27;5.60;;;2.10;;
69419;SDS011;56612;52.030;113.524;2023-04-25T06:40:31;8.75;;;2.63;;
69419;SDS011;56612;52.030;113.524;2023-04-25T06:43:35;12.20;;;2.87;;
69419;SDS011;56612;52.030;113.524;2023-04-25T06:47:02;5.67;;;1.83;;
69419;SDS011;56612;52.030;113.524;2023-04-25T06:50:06;7.38;;;2.10;;
69419;SDS011;56612;52.030;113.524;2023-04-25T06:53:11;7.93;;;2.05;;
69419;SDS011;56612;52.030;113.524;2023-04-25T06:56:18;6.18;;;1.73;;
69419;SDS011;56612;52.030;113.524;2023-04-25T06:59:31;6.37;;;1.90;;
69419;SDS011;56612;52.030;113.524;2023-04-25T07:02:36;5.50;;;1.80;;
69419;SDS011;56612;52.030;113.524;2023-04-25T07:05:41;8.85;;;2.13;;
69419;SDS011;56612;52.030;113.524;2023-04-25T07:08:46;4.82;;;1.95;;
69419;SDS011;56612;52.030;113.524;2023-04-25T07:11:52;7.22;;;1.95;;
69419;SDS011;56612;52.030;113.524;2023-04-25T07:14:55;6.33;;;2.37;;
69419;SDS011;56612;52.030;113.524;2023-04-25T07:18:00;3.40;;;1.63;;
69419;SDS011;56612;52.030;113.524;2023-04-25T07:21:05;6.22;;;2.03;;
69419;SDS011;56612;52.030;113.524;2023-04-25T07:24:10;4.95;;;1.77;;
69419;SDS011;56612;52.030;113.524;2023-04-25T07:27:18;7.93;;;1.90;;
69419;SDS011;56612;52.030;113.524;2023-04-25T07:30:51;7.23;;;3.20;;
69419;SDS011;56612;52.030;113.524;2023-04-25T07:33:54;6.97;;;2.33;;
69419;SDS011;56612;52.030;113.524;2023-04-25T07:37:01;7.18;;;2.17;;
69419;SDS011;56612;52.030;113.524;2023-04-25T07:40:11;6.22;;;2.60;;
69419;SDS011;56612;52.030;113.524;2023-04-25T07:43:19;12.13;;;2.30;;
69419;SDS011;56612;52.030;113.524;2023-04-25T07:46:33;5.13;;;2.20;;
69419;SDS011;56612;52.030;113.524;2023-04-25T07:49:38;7.60;;;1.50;;
69419;SDS011;56612;52.030;113.524;2023-04-25T07:52:43;5.28;;;2.10;;
69419;SDS011;56612;52.030;113.524;2023-04-25T07:55:52;5.95;;;2.20;;
69419;SDS011;56612;52.030;113.524;2023-04-25T07:58:56;6.13;;;2.10;;
69419;SDS011;56612;52.030;113.524;2023-04-25T08:02:00;6.20;;;2.10;;
69419;SDS011;56612;52.030;113.524;2023-04-25T08:05:05;6.63;;;2.20;;
69419;SDS011;56612;52.030;113.524;2023-04-25T08:08:11;5.10;;;1.75;;
69419;SDS011;56612;52.030;113.524;2023-04-25T08:11:15;6.00;;;2.13;;
69419;SDS011;56612;52.030;113.524;2023-04-25T08:14:19;4.78;;;1.83;;
69419;SDS011;56612;52.030;113.524;2023-04-25T08:17:23;6.13;;;2.33;;
69419;SDS011;56612;52.030;113.524;2023-04-25T08:20:28;10.27;;;2.30;;
69419;SDS011;56612;52.030;113.524;2023-04-25T08:23:34;5.65;;;1.90;;
69419;SDS011;56612;52.030;113.524;2023-04-25T08:26:44;8.73;;;2.53;;
69419;SDS011;56612;52.030;113.524;2023-04-25T08:29:50;9.90;;;2.45;;
69419;SDS011;56612;52.030;113.524;2023-04-25T08:32:54;8.43;;;2.77;;
69419;SDS011;56612;52.030;113.524;2023-04-25T08:36:14;7.67;;;2.90;;
69419;SDS011;56612;52.030;113.524;2023-04-25T08:39:37;12.27;;;3.17;;
69419;SDS011;56612;52.030;113.524;2023-04-25T08:42:59;12.88;;;2.78;;
69419;SDS011;56612;52.030;113.524;2023-04-25T08:46:07;5.20;;;2.05;;
69419;SDS011;56612;52.030;113.524;2023-04-25T08:49:19;8.00;;;1.97;;
69419;SDS011;56612;52.030;113.524;2023-04-25T08:52:23;7.67;;;2.50;;
69419;SDS011;56612;52.030;113.524;2023-04-25T08:55:34;7.95;;;2.78;;
69419;SDS011;56612;52.030;113.524;2023-04-25T08:58:43;6.60;;;2.60;;
69419;SDS011;56612;52.030;113.524;2023-04-25T09:01:49;7.45;;;2.55;;
69419;SDS011;56612;52.030;113.524;2023-04-25T09:04:56;5.77;;;2.30;;
69419;SDS011;56612;52.030;113.524;2023-04-25T09:08:01;7.57;;;1.90;;
69419;SDS011;56612;52.030;113.524;2023-04-25T09:11:06;8.93;;;2.28;;
69419;SDS011;56612;52.030;113.524;2023-04-25T09:14:15;6.28;;;1.88;;
69419;SDS011;56612;52.030;113.524;2023-04-25T09:17:41;6.30;;;1.65;;
69419;SDS011;56612;52.030;113.524;2023-04-25T09:20:47;6.57;;;2.03;;
69419;SDS011;56612;52.030;113.524;2023-04-25T09:23:54;5.77;;;2.07;;
69419;SDS011;56612;52.030;113.524;2023-04-25T09:26:58;4.57;;;1.80;;
69419;SDS011;56612;52.030;113.524;2023-04-25T09:30:02;7.75;;;2.28;;
69419;SDS011;56612;52.030;113.524;2023-04-25T09:33:30;5.97;;;2.20;;
69419;SDS011;56612;52.030;113.524;2023-04-25T09:36:35;6.10;;;1.70;;
69419;SDS011;56612;52.030;113.524;2023-04-25T09:40:17;7.47;;;1.90;;
69419;SDS011;56612;52.030;113.524;2023-04-25T09:43:35;8.02;;;2.70;;
69419;SDS011;56612;52.030;113.524;2023-04-25T09:46:40;7.20;;;2.60;;
69419;SDS011;56612;52.030;113.524;2023-04-25T09:49:54;6.43;;;1.90;;
69419;SDS011;56612;52.030;113.524;2023-04-25T09:53:04;9.33;;;2.70;;
69419;SDS011;56612;52.030;113.524;2023-04-25T09:56:30;8.47;;;2.20;;
69419;SDS011;56612;52.030;113.524;2023-04-25T09:59:43;12.63;;;2.85;;
69419;SDS011;56612;52.030;113.524;2023-04-25T10:02:57;7.75;;;2.80;;
69419;SDS011;56612;52.030;113.524;2023-04-25T10:06:29;9.95;;;2.08;;
69419;SDS011;56612;52.030;113.524;2023-04-25T10:09:37;10.23;;;3.20;;
69419;SDS011;56612;52.030;113.524;2023-04-25T10:12:44;8.53;;;2.97;;
69419;SDS011;56612;52.030;113.524;2023-04-25T10:15:48;17.88;;;3.38;;
69419;SDS011;56612;52.030;113.524;2023-04-25T10:18:53;5.85;;;2.33;;
69419;SDS011;56612;52.030;113.524;2023-04-25T10:25:10;5.97;;;2.00;;
69419;SDS011;56612;52.030;113.524;2023-04-25T10:28:14;9.07;;;2.30;;
69419;SDS011;56612;52.030;113.524;2023-04-25T10:31:18;6.30;;;1.70;;
69419;SDS011;56612;52.030;113.524;2023-04-25T10:34:41;7.68;;;2.10;;
69419;SDS011;56612;52.030;113.524;2023-04-25T10:41:13;7.63;;;3.00;;
69419;SDS011;56612;52.030;113.524;2023-04-25T10:44:17;18.40;;;3.17;;
69419;SDS011;56612;52.030;113.524;2023-04-25T10:47:22;8.27;;;2.53;;
69419;SDS011;56612;52.030;113.524;2023-04-25T10:50:46;11.50;;;3.05;;
69419;SDS011;56612;52.030;113.524;2023-04-25T10:54:08;15.75;;;2.70;;
69419;SDS011;56612;52.030;113.524;2023-04-25T10:57:27;10.10;;;3.27;;
69419;SDS011;56612;52.030;113.524;2023-04-25T11:00:48;14.57;;;3.67;;
69419;SDS011;56612;52.030;113.524;2023-04-25T11:03:59;10.70;;;3.63;;
69419;SDS011;56612;52.030;113.524;2023-04-25T11:10:09;11.70;;;3.40;;
69419;SDS011;56612;52.030;113.524;2023-04-25T11:13:13;15.63;;;3.00;;
69419;SDS011;56612;52.030;113.524;2023-04-25T11:16:17;9.57;;;2.40;;
69419;SDS011;56612;52.030;113.524;2023-04-25T11:19:31;16.70;;;3.53;;
69419;SDS011;56612;52.030;113.524;2023-04-25T11:22:34;10.35;;;3.40;;
69419;SDS011;56612;52.030;113.524;2023-04-25T11:25:38;9.02;;;2.83;;
69419;SDS011;56612;52.030;113.524;2023-04-25T11:28:44;22.73;;;3.43;;
69419;SDS011;56612;52.030;113.524;2023-04-25T11:31:50;13.27;;;3.70;;
69419;SDS011;56612;52.030;113.524;2023-04-25T11:34:54;12.63;;;3.83;;
69419;SDS011;56612;52.030;113.524;2023-04-25T11:37:58;11.90;;;3.10;;
69419;SDS011;56612;52.030;113.524;2023-04-25T11:41:01;23.15;;;3.33;;
69419;SDS011;56612;52.030;113.524;2023-04-25T11:44:06;13.47;;;3.47;;
69419;SDS011;56612;52.030;113.524;2023-04-25T11:47:10;7.93;;;2.77;;
69419;SDS011;56612;52.030;113.524;2023-04-25T11:50:13;12.68;;;3.15;;
69419;SDS011;56612;52.030;113.524;2023-04-25T11:53:17;11.82;;;3.15;;
69419;SDS011;56612;52.030;113.524;2023-04-25T11:56:21;11.57;;;3.00;;
69419;SDS011;56612;52.030;113.524;2023-04-25T11:59:25;10.60;;;2.90;;
69419;SDS011;56612;52.030;113.524;2023-04-25T12:02:29;9.63;;;2.97;;
69419;SDS011;56612;52.030;113.524;2023-04-25T12:05:32;10.88;;;2.75;;
69419;SDS011;56612;52.030;113.524;2023-04-25T12:08:36;9.23;;;2.97;;
69419;SDS011;56612;52.030;113.524;2023-04-25T12:14:47;17.07;;;4.23;;
69419;SDS011;56612;52.030;113.524;2023-04-25T12:17:54;18.40;;;10.20;;
69419;SDS011;56612;52.030;113.524;2023-04-25T12:20:58;21.02;;;5.60;;
69419;SDS011;56612;52.030;113.524;2023-04-25T12:24:35;23.63;;;6.40;;
69419;SDS011;56612;52.030;113.524;2023-04-25T12:27:32;19.73;;;4.75;;
69419;SDS011;56612;52.030;113.524;2023-04-25T12:30:54;11.07;;;3.77;;
69419;SDS011;56612;52.030;113.524;2023-04-25T12:34:04;14.10;;;4.60;;
69419;SDS011;56612;52.030;113.524;2023-04-25T12:37:09;14.50;;;5.43;;
69419;SDS011;56612;52.030;113.524;2023-04-25T12:40:13;28.95;;;11.32;;
69419;SDS011;56612;52.030;113.524;2023-04-25T12:43:16;44.60;;;14.38;;
69419;SDS011;56612;52.030;113.524;2023-04-25T12:46:21;40.57;;;16.20;;
69419;SDS011;56612;52.030;113.524;2023-04-25T12:49:28;37.20;;;13.60;;
69419;SDS011;56612;52.030;113.524;2023-04-25T12:52:32;33.47;;;13.27;;
69419;SDS011;56612;52.030;113.524;2023-04-25T12:55:35;32.97;;;12.27;;
69419;SDS011;56612;52.030;113.524;2023-04-25T12:58:39;36.40;;;12.88;;
69419;SDS011;56612;52.030;113.524;2023-04-25T13:01:42;32.63;;;11.67;;
69419;SDS011;56612;52.030;113.524;2023-04-25T13:04:48;31.70;;;9.87;;
69419;SDS011;56612;52.030;113.524;2023-04-25T13:07:52;32.35;;;13.52;;
69419;SDS011;56612;52.030;113.524;2023-04-25T13:10:56;44.20;;;20.60;;
69419;SDS011;56612;52.030;113.524;2023-04-25T13:14:00;34.75;;;13.55;;
69419;SDS011;56612;52.030;113.524;2023-04-25T13:17:04;40.80;;;16.37;;
69419;SDS011;56612;52.030;113.524;2023-04-25T13:20:09;39.70;;;14.27;;
69419;SDS011;56612;52.030;113.524;2023-04-25T13:23:12;31.95;;;11.73;;
69419;SDS011;56612;52.030;113.524;2023-04-25T13:26:16;27.65;;;11.23;;
69419;SDS011;56612;52.030;113.524;2023-04-25T13:29:20;45.78;;;17.45;;
69419;SDS011;56612;52.030;113.524;2023-04-25T13:32:23;47.77;;;19.27;;
69419;SDS011;56612;52.030;113.524;2023-04-25T13:35:26;57.17;;;19.53;;
69419;SDS011;56612;52.030;113.524;2023-04-25T13:38:29;150.38;;;58.28;;
69419;SDS011;56612;52.030;113.524;2023-04-25T13:41:33;79.40;;;29.55;;
69419;SDS011;56612;52.030;113.524;2023-04-25T13:44:37;55.47;;;19.40;;
69419;SDS011;56612;52.030;113.524;2023-04-25T13:47:40;56.57;;;19.57;;
69419;SDS011;56612;52.030;113.524;2023-04-25T13:50:43;46.60;;;18.27;;
69419;SDS011;56612;52.030;113.524;2023-04-25T13:53:48;45.28;;;16.90;;
69419;SDS011;56612;52.030;113.524;2023-04-25T13:56:52;37.53;;;15.13;;
69419;SDS011;56612;52.030;113.524;2023-04-25T14:00:01;47.15;;;15.88;;
69419;SDS011;56612;52.030;113.524;2023-04-25T14:03:12;41.13;;;13.63;;
69419;SDS011;56612;52.030;113.524;2023-04-25T14:06:15;34.50;;;11.03;;
69419;SDS011;56612;52.030;113.524;2023-04-25T14:09:25;38.78;;;10.77;;
69419;SDS011;56612;52.030;113.524;2023-04-25T14:12:29;42.22;;;10.98;;
69419;SDS011;56612;52.030;113.524;2023-04-25T14:15:34;39.53;;;11.60;;
69419;SDS011;56612;52.030;113.524;2023-04-25T14:18:37;49.37;;;15.00;;
69419;SDS011;56612;52.030;113.524;2023-04-25T14:21:40;50.47;;;16.13;;
69419;SDS011;56612;52.030;113.524;2023-04-25T14:24:44;59.83;;;19.65;;
69419;SDS011;56612;52.030;113.524;2023-04-25T14:27:48;53.45;;;18.88;;
69419;SDS011;56612;52.030;113.524;2023-04-25T14:30:52;60.67;;;21.50;;
69419;SDS011;56612;52.030;113.524;2023-04-25T14:33:56;68.10;;;21.13;;
69419;SDS011;56612;52.030;113.524;2023-04-25T14:37:00;57.63;;;21.50;;
69419;SDS011;56612;52.030;113.524;2023-04-25T14:40:04;67.47;;;22.67;;
69419;SDS011;56612;52.030;113.524;2023-04-25T14:43:07;57.97;;;19.45;;
69419;SDS011;56612;52.030;113.524;2023-04-25T14:46:10;53.72;;;18.10;;
69419;SDS011;56612;52.030;113.524;2023-04-25T14:49:14;57.50;;;17.23;;
69419;SDS011;56612;52.030;113.524;2023-04-25T14:52:17;55.93;;;20.53;;
69419;SDS011;56612;52.030;113.524;2023-04-25T14:55:21;59.60;;;19.35;;
69419;SDS011;56612;52.030;113.524;2023-04-25T14:58:24;68.90;;;18.85;;
69419;SDS011;56612;52.030;113.524;2023-04-25T15:01:28;55.47;;;18.60;;
69419;SDS011;56612;52.030;113.524;2023-04-25T15:04:31;51.13;;;20.87;;
69419;SDS011;56612;52.030;113.524;2023-04-25T15:07:35;48.93;;;17.87;;
69419;SDS011;56612;52.030;113.524;2023-04-25T15:10:38;66.40;;;20.00;;
69419;SDS011;56612;52.030;113.524;2023-04-25T15:13:42;56.17;;;16.25;;
69419;SDS011;56612;52.030;113.524;2023-04-25T15:16:46;52.55;;;17.67;;
69419;SDS011;56612;52.030;113.524;2023-04-25T15:19:49;51.50;;;18.77;;
69419;SDS011;56612;52.030;113.524;2023-04-25T15:22:53;47.03;;;16.03;;
69419;SDS011;56612;52.030;113.524;2023-04-25T15:25:57;53.67;;;18.35;;
69419;SDS011;56612;52.030;113.524;2023-04-25T15:29:00;67.72;;;20.85;;
69419;SDS011;56612;52.030;113.524;2023-04-25T15:32:06;68.70;;;24.08;;
69419;SDS011;56612;52.030;113.524;2023-04-25T15:35:09;69.43;;;24.87;;
69419;SDS011;56612;52.030;113.524;2023-04-25T15:38:13;79.30;;;25.80;;
69419;SDS011;56612;52.030;113.524;2023-04-25T15:41:17;57.83;;;19.23;;
69419;SDS011;56612;52.030;113.524;2023-04-25T15:44:21;62.00;;;20.20;;
69419;SDS011;56612;52.030;113.524;2023-04-25T15:47:24;59.35;;;19.55;;
69419;SDS011;56612;52.030;113.524;2023-04-25T15:50:28;52.53;;;16.17;;
69419;SDS011;56612;52.030;113.524;2023-04-25T15:53:32;39.10;;;14.50;;
69419;SDS011;56612;52.030;113.524;2023-04-25T15:56:35;50.83;;;18.73;;
69419;SDS011;56612;52.030;113.524;2023-04-25T15:59:39;59.63;;;21.05;;
69419;SDS011;56612;52.030;113.524;2023-04-25T16:02:43;71.93;;;23.10;;
69419;SDS011;56612;52.030;113.524;2023-04-25T16:05:49;61.80;;;21.07;;
69419;SDS011;56612;52.030;113.524;2023-04-25T16:08:52;62.17;;;22.17;;
69419;SDS011;56612;52.030;113.524;2023-04-25T16:11:56;53.42;;;21.92;;
69419;SDS011;56612;52.030;113.524;2023-04-25T16:15:00;58.92;;;22.25;;
69419;SDS011;56612;52.030;113.524;2023-04-25T16:18:03;65.53;;;22.92;;
69419;SDS011;56612;52.030;113.524;2023-04-25T16:21:07;50.43;;;19.90;;
69419;SDS011;56612;52.030;113.524;2023-04-25T16:24:11;54.80;;;21.13;;
69419;SDS011;56612;52.030;113.524;2023-04-25T16:27:15;45.63;;;16.77;;
69419;SDS011;56612;52.030;113.524;2023-04-25T16:30:19;52.90;;;18.30;;
69419;SDS011;56612;52.030;113.524;2023-04-25T16:33:22;49.22;;;18.45;;
69419;SDS011;56612;52.030;113.524;2023-04-25T16:36:26;56.67;;;21.47;;
69419;SDS011;56612;52.030;113.524;2023-04-25T16:39:29;54.73;;;20.53;;
69419;SDS011;56612;52.030;113.524;2023-04-25T16:42:33;64.53;;;23.08;;
69419;SDS011;56612;52.030;113.524;2023-04-25T16:45:36;59.88;;;23.38;;
69419;SDS011;56612;52.030;113.524;2023-04-25T16:48:40;71.90;;;25.20;;
69419;SDS011;56612;52.030;113.524;2023-04-25T16:51:45;63.27;;;23.90;;
69419;SDS011;56612;52.030;113.524;2023-04-25T16:54:49;70.77;;;26.50;;
69419;SDS011;56612;52.030;113.524;2023-04-25T16:57:52;52.72;;;20.83;;
69419;SDS011;56612;52.030;113.524;2023-04-25T17:00:56;65.97;;;22.75;;
69419;SDS011;56612;52.030;113.524;2023-04-25T17:04:00;59.97;;;22.80;;
69419;SDS011;56612;52.030;113.524;2023-04-25T17:07:03;69.50;;;22.03;;
69419;SDS011;56612;52.030;113.524;2023-04-25T17:10:07;62.60;;;22.07;;
69419;SDS011;56612;52.030;113.524;2023-04-25T17:13:11;70.47;;;20.73;;
69419;SDS011;56612;52.030;113.524;2023-04-25T17:16:14;52.90;;;21.75;;
69419;SDS011;56612;52.030;113.524;2023-04-25T17:19:25;59.60;;;21.05;;
69419;SDS011;56612;52.030;113.524;2023-04-25T17:22:29;62.97;;;21.53;;
69419;SDS011;56612;52.030;113.524;2023-04-25T17:25:33;57.03;;;19.47;;
69419;SDS011;56612;52.030;113.524;2023-04-25T17:28:37;60.95;;;20.27;;
69419;SDS011;56612;52.030;113.524;2023-04-25T17:31:40;63.63;;;21.65;;
69419;SDS011;56612;52.030;113.524;2023-04-25T17:34:44;59.53;;;19.55;;
69419;SDS011;56612;52.030;113.524;2023-04-25T17:37:49;62.50;;;21.83;;
69419;SDS011;56612;52.030;113.524;2023-04-25T17:40:54;55.33;;;19.90;;
69419;SDS011;56612;52.030;113.524;2023-04-25T17:43:58;57.65;;;20.92;;
69419;SDS011;56612;52.030;113.524;2023-04-25T17:47:02;57.90;;;18.95;;
69419;SDS011;56612;52.030;113.524;2023-04-25T17:50:07;67.88;;;21.42;;
69419;SDS011;56612;52.030;113.524;2023-04-25T17:53:10;63.63;;;22.90;;
69419;SDS011;56612;52.030;113.524;2023-04-25T17:56:13;64.27;;;20.43;;
69419;SDS011;56612;52.030;113.524;2023-04-25T17:59:27;80.00;;;26.25;;
69419;SDS011;56612;52.030;113.524;2023-04-25T18:02:31;89.70;;;27.95;;
69419;SDS011;56612;52.030;113.524;2023-04-25T18:05:35;89.38;;;29.13;;
69419;SDS011;56612;52.030;113.524;2023-04-25T18:08:38;83.23;;;29.20;;
69419;SDS011;56612;52.030;113.524;2023-04-25T18:11:43;78.53;;;26.57;;